createdAt,value
2017-01-04T00:00:02.800Z,1007.89
2017-01-04T00:00:12.783Z,1007.84
2017-01-04T00:00:22.775Z,1007.84
2017-01-04T00:00:32.768Z,1007.86
2017-01-04T00:00:42.779Z,1007.88
2017-01-04T00:00:52.756Z,1007.91
2017-01-04T00:01:02.747Z,1007.86
2017-01-04T00:01:12.742Z,1007.81
2017-01-04T00:01:22.734Z,1007.81
2017-01-04T00:01:32.728Z,1007.88
2017-01-04T00:01:42.860Z,1007.84
2017-01-04T00:01:52.716Z,1007.88
2017-01-04T00:02:02.713Z,1007.84
2017-01-04T00:02:12.702Z,1007.8
2017-01-04T00:02:22.700Z,1007.86
2017-01-04T00:02:32.691Z,1007.85
2017-01-04T00:02:42.685Z,1007.83
2017-01-04T00:02:52.675Z,1007.91
2017-01-04T00:03:02.673Z,1007.77
2017-01-04T00:03:12.666Z,1007.9
2017-01-04T00:03:22.659Z,1007.89
2017-01-04T00:03:32.649Z,1007.86
2017-01-04T00:03:42.646Z,1007.82
2017-01-04T00:03:52.637Z,1007.82
2017-01-04T00:04:02.632Z,1007.83
2017-01-04T00:04:12.624Z,1007.83
2017-01-04T00:04:22.622Z,1007.89
2017-01-04T00:04:32.613Z,1007.87
2017-01-04T00:04:42.607Z,1007.83
2017-01-04T00:04:52.596Z,1007.87
2017-01-04T00:05:02.593Z,1007.86
2017-01-04T00:05:12.588Z,1007.85
2017-01-04T00:05:22.581Z,1007.8
2017-01-04T00:05:32.572Z,1007.83
2017-01-04T00:05:42.565Z,1007.82
2017-01-04T00:05:52.561Z,1007.82
2017-01-04T00:06:02.554Z,1007.73
2017-01-04T00:06:12.549Z,1007.79
2017-01-04T00:06:22.543Z,1007.81
2017-01-04T00:06:32.536Z,1007.81
2017-01-04T00:06:42.529Z,1007.8
2017-01-04T00:06:52.520Z,1007.74
2017-01-04T00:07:02.514Z,1007.77
2017-01-04T00:07:12.509Z,1007.77
2017-01-04T00:07:22.505Z,1007.76
2017-01-04T00:07:32.494Z,1007.79
2017-01-04T00:07:42.489Z,1007.76
2017-01-04T00:07:52.480Z,1007.71
2017-01-04T00:08:02.476Z,1007.78
2017-01-04T00:08:12.466Z,1007.75
2017-01-04T00:08:22.466Z,1007.76
2017-01-04T00:08:32.458Z,1007.7
2017-01-04T00:08:42.449Z,1007.67
2017-01-04T00:08:52.442Z,1007.74
2017-01-04T00:09:02.436Z,1007.76
2017-01-04T00:09:12.430Z,1007.73
2017-01-04T00:09:22.421Z,1007.69
2017-01-04T00:09:32.415Z,1007.69
2017-01-04T00:09:42.413Z,1007.69
2017-01-04T00:09:52.403Z,1007.72
2017-01-04T00:10:02.398Z,1007.7
2017-01-04T00:10:12.417Z,1007.72
2017-01-04T00:10:22.383Z,1007.67
2017-01-04T00:10:32.377Z,1007.76
2017-01-04T00:10:42.370Z,1007.76
2017-01-04T00:10:52.364Z,1007.71
2017-01-04T00:11:02.356Z,1007.67
2017-01-04T00:11:12.348Z,1007.69
2017-01-04T00:11:22.343Z,1007.77
2017-01-04T00:11:32.338Z,1007.69
2017-01-04T00:11:42.329Z,1007.62
2017-01-04T00:11:52.326Z,1007.68
2017-01-04T00:12:02.319Z,1007.7
2017-01-04T00:12:12.312Z,1007.65
2017-01-04T00:12:22.307Z,1007.71
2017-01-04T00:12:32.299Z,1007.67
2017-01-04T00:12:42.294Z,1007.7
2017-01-04T00:12:52.284Z,1007.72
2017-01-04T00:13:02.282Z,1007.73
2017-01-04T00:13:12.275Z,1007.69
2017-01-04T00:13:22.269Z,1007.7
2017-01-04T00:13:32.264Z,1007.7
2017-01-04T00:13:42.253Z,1007.75
2017-01-04T00:13:52.245Z,1007.76
2017-01-04T00:14:02.245Z,1007.74
2017-01-04T00:14:12.237Z,1007.76
2017-01-04T00:14:22.226Z,1007.75
2017-01-04T00:14:32.222Z,1007.7
2017-01-04T00:14:42.214Z,1007.71
2017-01-04T00:14:52.207Z,1007.74
2017-01-04T00:15:02.205Z,1007.71
2017-01-04T00:15:12.195Z,1007.73
2017-01-04T00:15:22.191Z,1007.69
2017-01-04T00:15:32.180Z,1007.71
2017-01-04T00:15:42.176Z,1007.75
2017-01-04T00:15:52.167Z,1007.7
2017-01-04T00:16:02.168Z,1007.73
2017-01-04T00:16:12.155Z,1007.71
2017-01-04T00:16:22.150Z,1007.73
2017-01-04T00:16:32.144Z,1007.78
2017-01-04T00:16:42.135Z,1007.72
2017-01-04T00:16:52.126Z,1007.73
2017-01-04T00:17:02.127Z,1007.69
2017-01-04T00:17:12.118Z,1007.71
2017-01-04T00:17:22.111Z,1007.71
2017-01-04T00:17:32.105Z,1007.68
2017-01-04T00:17:42.098Z,1007.69
2017-01-04T00:17:52.089Z,1007.7
2017-01-04T00:18:02.086Z,1007.62
2017-01-04T00:18:12.073Z,1007.62
2017-01-04T00:18:22.072Z,1007.67
2017-01-04T00:18:32.068Z,1007.65
2017-01-04T00:18:42.061Z,1007.65
2017-01-04T00:18:52.055Z,1007.64
2017-01-04T00:19:02.043Z,1007.61
2017-01-04T00:19:12.035Z,1007.58
2017-01-04T00:19:22.034Z,1007.62
2017-01-04T00:19:32.024Z,1007.64
2017-01-04T00:19:42.021Z,1007.66
2017-01-04T00:19:52.012Z,1007.63
2017-01-04T00:20:02.011Z,1007.6
2017-01-04T00:20:12.001Z,1007.65
2017-01-04T00:20:21.990Z,1007.67
2017-01-04T00:20:31.987Z,1007.66
2017-01-04T00:20:41.982Z,1007.62
2017-01-04T00:20:51.973Z,1007.58
2017-01-04T00:21:01.967Z,1007.6
2017-01-04T00:21:11.961Z,1007.67
2017-01-04T00:21:21.954Z,1007.57
2017-01-04T00:21:31.949Z,1007.54
2017-01-04T00:21:41.941Z,1007.61
2017-01-04T00:21:51.935Z,1007.65
2017-01-04T00:22:01.925Z,1007.6
2017-01-04T00:22:11.922Z,1007.65
2017-01-04T00:22:21.913Z,1007.6
2017-01-04T00:22:31.907Z,1007.57
2017-01-04T00:22:41.903Z,1007.65
2017-01-04T00:22:51.895Z,1007.61
2017-01-04T00:23:01.890Z,1007.65
2017-01-04T00:23:11.881Z,1007.6
2017-01-04T00:23:21.875Z,1007.57
2017-01-04T00:23:31.868Z,1007.65
2017-01-04T00:23:41.862Z,1007.65
2017-01-04T00:23:51.856Z,1007.65
2017-01-04T00:24:01.847Z,1007.59
2017-01-04T00:24:11.842Z,1007.6
2017-01-04T00:24:21.839Z,1007.63
2017-01-04T00:24:31.831Z,1007.61
2017-01-04T00:24:41.822Z,1007.59
2017-01-04T00:24:51.813Z,1007.64
2017-01-04T00:25:01.810Z,1007.53
2017-01-04T00:25:11.804Z,1007.59
2017-01-04T00:25:21.795Z,1007.66
2017-01-04T00:25:31.793Z,1007.57
2017-01-04T00:25:41.817Z,1007.54
2017-01-04T00:25:51.777Z,1007.55
2017-01-04T00:26:01.771Z,1007.59
2017-01-04T00:26:11.762Z,1007.52
2017-01-04T00:26:21.756Z,1007.55
2017-01-04T00:26:31.751Z,1007.61
2017-01-04T00:26:41.743Z,1007.56
2017-01-04T00:26:51.740Z,1007.54
2017-01-04T00:27:01.733Z,1007.56
2017-01-04T00:27:11.723Z,1007.59
2017-01-04T00:27:21.720Z,1007.57
2017-01-04T00:27:31.711Z,1007.55
2017-01-04T00:27:41.704Z,1007.54
2017-01-04T00:27:51.703Z,1007.52
2017-01-04T00:28:01.692Z,1007.5
2017-01-04T00:28:11.688Z,1007.59
2017-01-04T00:28:21.680Z,1007.56
2017-01-04T00:28:31.678Z,1007.56
2017-01-04T00:28:41.667Z,1007.58
2017-01-04T00:28:51.662Z,1007.56
2017-01-04T00:29:01.654Z,1007.49
2017-01-04T00:29:11.646Z,1007.56
2017-01-04T00:29:21.639Z,1007.5
2017-01-04T00:29:31.634Z,1007.5
2017-01-04T00:29:41.629Z,1007.45
2017-01-04T00:29:51.620Z,1007.5
2017-01-04T00:30:01.616Z,1007.48
2017-01-04T00:30:11.610Z,1007.45
2017-01-04T00:30:21.600Z,1007.45
2017-01-04T00:30:31.594Z,1007.4
2017-01-04T00:30:41.587Z,1007.48
2017-01-04T00:30:51.579Z,1007.48
2017-01-04T00:31:01.708Z,1007.47
2017-01-04T00:31:11.569Z,1007.49
2017-01-04T00:31:21.560Z,1007.42
2017-01-04T00:31:31.693Z,1007.49
2017-01-04T00:31:41.551Z,1007.47
2017-01-04T00:31:51.548Z,1007.41
2017-01-04T00:32:01.535Z,1007.43
2017-01-04T00:32:11.531Z,1007.42
2017-01-04T00:32:21.530Z,1007.46
2017-01-04T00:32:31.522Z,1007.42
2017-01-04T00:32:41.510Z,1007.42
2017-01-04T00:32:51.502Z,1007.42
2017-01-04T00:33:01.499Z,1007.47
2017-01-04T00:33:11.496Z,1007.35
2017-01-04T00:33:21.615Z,1007.43
2017-01-04T00:33:31.479Z,1007.41
2017-01-04T00:33:41.473Z,1007.55
2017-01-04T00:33:51.462Z,1007.43
2017-01-04T00:34:01.460Z,1007.51
2017-01-04T00:34:11.455Z,1007.43
2017-01-04T00:34:21.447Z,1007.41
2017-01-04T00:34:31.437Z,1007.42
2017-01-04T00:34:41.431Z,1007.41
2017-01-04T00:34:51.428Z,1007.39
2017-01-04T00:35:01.421Z,1007.36
2017-01-04T00:35:11.413Z,1007.42
2017-01-04T00:35:21.405Z,1007.4
2017-01-04T00:35:31.398Z,1007.38
2017-01-04T00:35:41.393Z,1007.48
2017-01-04T00:35:51.387Z,1007.38
2017-01-04T00:36:01.381Z,1007.41
2017-01-04T00:36:11.377Z,1007.38
2017-01-04T00:36:21.365Z,1007.47
2017-01-04T00:36:31.359Z,1007.43
2017-01-04T00:36:41.351Z,1007.43
2017-01-04T00:36:51.345Z,1007.46
2017-01-04T00:37:01.341Z,1007.4
2017-01-04T00:37:11.336Z,1007.39
2017-01-04T00:37:21.328Z,1007.48
2017-01-04T00:37:31.320Z,1007.43
2017-01-04T00:37:41.313Z,1007.41
2017-01-04T00:37:51.305Z,1007.43
2017-01-04T00:38:01.304Z,1007.47
2017-01-04T00:38:11.295Z,1007.42
2017-01-04T00:38:21.288Z,1007.36
2017-01-04T00:38:31.311Z,1007.4
2017-01-04T00:38:41.278Z,1007.43
2017-01-04T00:38:51.269Z,1007.37
2017-01-04T00:39:01.267Z,1007.39
2017-01-04T00:39:11.259Z,1007.34
2017-01-04T00:39:21.250Z,1007.4
2017-01-04T00:39:31.242Z,1007.4
2017-01-04T00:39:41.235Z,1007.39
2017-01-04T00:39:51.229Z,1007.36
2017-01-04T00:40:01.222Z,1007.4
2017-01-04T00:40:11.219Z,1007.34
2017-01-04T00:40:21.211Z,1007.37
2017-01-04T00:40:31.203Z,1007.33
2017-01-04T00:40:41.199Z,1007.29
2017-01-04T00:40:51.191Z,1007.31
2017-01-04T00:41:01.185Z,1007.28
2017-01-04T00:41:11.181Z,1007.25
2017-01-04T00:41:21.171Z,1007.35
2017-01-04T00:41:31.165Z,1007.31
2017-01-04T00:41:41.155Z,1007.3
2017-01-04T00:41:51.154Z,1007.35
2017-01-04T00:42:01.147Z,1007.26
2017-01-04T00:42:11.139Z,1007.28
2017-01-04T00:42:21.133Z,1007.26
2017-01-04T00:42:31.265Z,1007.25
2017-01-04T00:42:41.121Z,1007.32
2017-01-04T00:42:51.113Z,1007.34
2017-01-04T00:43:01.107Z,1007.3
2017-01-04T00:43:11.096Z,1007.27
2017-01-04T00:43:21.095Z,1007.25
2017-01-04T00:43:31.505Z,1007.24
2017-01-04T00:43:41.079Z,1007.22
2017-01-04T00:43:51.074Z,1007.2
2017-01-04T00:44:01.066Z,1007.17
2017-01-04T00:44:11.061Z,1007.21
2017-01-04T00:44:21.055Z,1007.14
2017-01-04T00:44:31.046Z,1007.19
2017-01-04T00:44:41.042Z,1007.26
2017-01-04T00:44:51.034Z,1007.24
2017-01-04T00:45:01.027Z,1007.24
2017-01-04T00:45:11.024Z,1007.19
2017-01-04T00:45:21.016Z,1007.21
2017-01-04T00:45:31.009Z,1007.17
2017-01-04T00:45:41.004Z,1007.17
2017-01-04T00:45:50.996Z,1007.22
2017-01-04T00:46:01.015Z,1007.2
2017-01-04T00:46:10.982Z,1007.16
2017-01-04T00:46:20.975Z,1007.14
2017-01-04T00:46:30.970Z,1007.11
2017-01-04T00:46:40.988Z,1007.17
2017-01-04T00:46:51.087Z,1007.15
2017-01-04T00:47:00.947Z,1007.17
2017-01-04T00:47:10.942Z,1007.17
2017-01-04T00:47:20.934Z,1007.22
2017-01-04T00:47:30.932Z,1007.15
2017-01-04T00:47:40.922Z,1007.24
2017-01-04T00:47:50.915Z,1007.11
2017-01-04T00:48:00.910Z,1007.14
2017-01-04T00:48:10.903Z,1007.12
2017-01-04T00:48:21.033Z,1007.12
2017-01-04T00:48:30.893Z,1007.23
2017-01-04T00:48:40.886Z,1007.14
2017-01-04T00:48:50.880Z,1007.19
2017-01-04T00:49:00.875Z,1007.2
2017-01-04T00:49:10.865Z,1007.2
2017-01-04T00:49:20.856Z,1007.11
2017-01-04T00:49:30.986Z,1007.12
2017-01-04T00:49:40.847Z,1007.16
2017-01-04T00:49:50.839Z,1007.21
2017-01-04T00:50:00.836Z,1007.15
2017-01-04T00:50:10.824Z,1007.23
2017-01-04T00:50:20.820Z,1007.22
2017-01-04T00:50:30.812Z,1007.25
2017-01-04T00:50:40.810Z,1007.27
2017-01-04T00:50:50.933Z,1007.23
2017-01-04T00:51:00.793Z,1007.22
2017-01-04T00:51:10.810Z,1007.19
2017-01-04T00:51:20.784Z,1007.26
2017-01-04T00:51:30.776Z,1007.18
2017-01-04T00:51:40.767Z,1007.18
2017-01-04T00:51:50.899Z,1007.19
2017-01-04T00:52:01.030Z,1007.21
2017-01-04T00:52:10.746Z,1007.24
2017-01-04T00:52:20.741Z,1007.28
2017-01-04T00:52:30.738Z,1007.24
2017-01-04T00:52:40.867Z,1007.14
2017-01-04T00:52:50.859Z,1007.24
2017-01-04T00:53:00.716Z,1007.16
2017-01-04T00:53:10.711Z,1007.17
2017-01-04T00:53:20.702Z,1007.24
2017-01-04T00:53:30.696Z,1007.21
2017-01-04T00:53:40.692Z,1007.2
2017-01-04T00:53:50.681Z,1007.12
2017-01-04T00:54:00.676Z,1007.18
2017-01-04T00:54:10.672Z,1007.25
2017-01-04T00:54:20.664Z,1007.28
2017-01-04T00:54:30.655Z,1007.14
2017-01-04T00:54:40.652Z,1007.23
2017-01-04T00:54:50.644Z,1007.27
2017-01-04T00:55:00.639Z,1007.12
2017-01-04T00:55:10.630Z,1007.12
2017-01-04T00:55:20.628Z,1007.16
2017-01-04T00:55:30.617Z,1007.2
2017-01-04T00:55:40.610Z,1007.24
2017-01-04T00:55:50.607Z,1007.31
2017-01-04T00:56:00.600Z,1007.09
2017-01-04T00:56:10.591Z,1007.2
2017-01-04T00:56:20.586Z,1007.26
2017-01-04T00:56:30.577Z,1007.19
2017-01-04T00:56:40.572Z,1007.14
2017-01-04T00:56:50.566Z,1007.22
2017-01-04T00:57:00.560Z,1007.22
2017-01-04T00:57:10.553Z,1007.2
2017-01-04T00:57:20.547Z,1007.16
2017-01-04T00:57:30.542Z,1007.24
2017-01-04T00:57:40.534Z,1007.26
2017-01-04T00:57:50.528Z,1007.15
2017-01-04T00:58:00.521Z,1007.23
2017-01-04T00:58:10.646Z,1007.29
2017-01-04T00:58:20.506Z,1007.16
2017-01-04T00:58:30.499Z,1007.2
2017-01-04T00:58:40.493Z,1007.26
2017-01-04T00:58:50.490Z,1007.23
2017-01-04T00:59:00.483Z,1007.21
2017-01-04T00:59:10.475Z,1007.21
2017-01-04T00:59:20.469Z,1007.23
2017-01-04T00:59:30.459Z,1007.12
2017-01-04T00:59:40.455Z,1007.21
2017-01-04T00:59:50.449Z,1007.2
2017-01-04T01:00:00.443Z,1007.21
2017-01-04T01:00:10.438Z,1007.19
2017-01-04T01:00:20.428Z,1007.18
2017-01-04T01:00:30.422Z,1007.1
2017-01-04T01:00:40.417Z,1007.13
2017-01-04T01:00:50.410Z,1007.1
2017-01-04T01:01:00.428Z,1007.15
2017-01-04T01:01:10.397Z,1007.13
2017-01-04T01:01:20.389Z,1007.23
2017-01-04T01:01:30.382Z,1007.15
2017-01-04T01:01:40.377Z,1007.16
2017-01-04T01:01:50.372Z,1007.19
2017-01-04T01:02:00.365Z,1007.13
2017-01-04T01:02:10.360Z,1007.19
2017-01-04T01:02:20.353Z,1007.16
2017-01-04T01:02:30.345Z,1007.12
2017-01-04T01:02:40.335Z,1007.12
2017-01-04T01:02:50.333Z,1007.14
2017-01-04T01:03:00.326Z,1007.14
2017-01-04T01:03:10.735Z,1007.1
2017-01-04T01:03:20.311Z,1007.19
2017-01-04T01:03:30.305Z,1007.13
2017-01-04T01:03:40.298Z,1007.19
2017-01-04T01:03:50.291Z,1007.16
2017-01-04T01:04:00.285Z,1007.14
2017-01-04T01:04:10.280Z,1007.17
2017-01-04T01:04:20.409Z,1007.21
2017-01-04T01:04:30.267Z,1007.16
2017-01-04T01:04:40.258Z,1007.21
2017-01-04T01:04:50.252Z,1007.15
2017-01-04T01:05:00.246Z,1007.14
2017-01-04T01:05:10.243Z,1007.18
2017-01-04T01:05:20.234Z,1007.15
2017-01-04T01:05:30.257Z,1007.15
2017-01-04T01:05:40.223Z,1007.13
2017-01-04T01:05:50.211Z,1007.13
2017-01-04T01:06:00.209Z,1007.19
2017-01-04T01:06:10.201Z,1007.15
2017-01-04T01:06:20.197Z,1007.14
2017-01-04T01:06:30.193Z,1007.19
2017-01-04T01:06:40.181Z,1007.15
2017-01-04T01:06:50.178Z,1007.13
2017-01-04T01:07:00.166Z,1007.14
2017-01-04T01:07:10.161Z,1007.14
2017-01-04T01:07:20.156Z,1007.13
2017-01-04T01:07:30.149Z,1007.15
2017-01-04T01:07:40.146Z,1007.2
2017-01-04T01:07:50.139Z,1007.13
2017-01-04T01:08:00.131Z,1007.24
2017-01-04T01:08:10.125Z,1007.24
2017-01-04T01:08:20.115Z,1007.13
2017-01-04T01:08:30.110Z,1007.19
2017-01-04T01:08:40.110Z,1007.17
2017-01-04T01:08:50.100Z,1007.15
2017-01-04T01:09:00.092Z,1007.14
2017-01-04T01:09:10.085Z,1007.21
2017-01-04T01:09:20.227Z,1007.13
2017-01-04T01:09:30.069Z,1007.18
2017-01-04T01:09:40.065Z,1007.11
2017-01-04T01:09:50.060Z,1007.15
2017-01-04T01:10:00.054Z,1007.14
2017-01-04T01:10:10.046Z,1007.17
2017-01-04T01:10:20.037Z,1007.12
2017-01-04T01:10:30.033Z,1007.13
2017-01-04T01:10:40.024Z,1007.14
2017-01-04T01:10:50.018Z,1007.18
2017-01-04T01:11:00.432Z,1007.16
2017-01-04T01:11:10.008Z,1007.15
2017-01-04T01:11:20.000Z,1007.13
2017-01-04T01:11:29.994Z,1007.11
2017-01-04T01:11:39.987Z,1007.17
2017-01-04T01:11:49.980Z,1007.16
2017-01-04T01:12:00.108Z,1007.15
2017-01-04T01:12:09.966Z,1007.1
2017-01-04T01:12:19.960Z,1007.11
2017-01-04T01:12:29.951Z,1007.1
2017-01-04T01:12:39.949Z,1007.08
2017-01-04T01:12:49.942Z,1007.12
2017-01-04T01:12:59.936Z,1007.05
2017-01-04T01:13:09.929Z,1007.07
2017-01-04T01:13:19.923Z,1007.14
2017-01-04T01:13:29.914Z,1007.1
2017-01-04T01:13:39.910Z,1007.08
2017-01-04T01:13:49.901Z,1007.12
2017-01-04T01:13:59.900Z,1007.06
2017-01-04T01:14:09.892Z,1007.05
2017-01-04T01:14:19.882Z,1007.07
2017-01-04T01:14:29.904Z,1007.17
2017-01-04T01:14:39.873Z,1007.09
2017-01-04T01:14:49.862Z,1007.11
2017-01-04T01:14:59.856Z,1007.08
2017-01-04T01:15:09.850Z,1007.09
2017-01-04T01:15:19.846Z,1007.04
2017-01-04T01:15:29.836Z,1007.04
2017-01-04T01:15:39.829Z,1007.09
2017-01-04T01:15:49.822Z,1007.09
2017-01-04T01:15:59.818Z,1007.09
2017-01-04T01:16:09.809Z,1007.03
2017-01-04T01:16:19.805Z,1007.07
2017-01-04T01:16:29.802Z,1007.06
2017-01-04T01:16:39.792Z,1007.06
2017-01-04T01:16:49.790Z,1007.12
2017-01-04T01:16:59.776Z,1007.08
2017-01-04T01:17:09.776Z,1007.06
2017-01-04T01:17:19.899Z,1007.03
2017-01-04T01:17:29.760Z,1007.05
2017-01-04T01:17:39.753Z,1007.1
2017-01-04T01:17:49.746Z,1007.05
2017-01-04T01:17:59.743Z,1007.06
2017-01-04T01:18:09.733Z,1007
2017-01-04T01:18:19.725Z,1007
2017-01-04T01:18:29.719Z,1006.96
2017-01-04T01:18:39.719Z,1006.99
2017-01-04T01:18:49.708Z,1007.05
2017-01-04T01:18:59.701Z,1006.96
2017-01-04T01:19:09.696Z,1007.04
2017-01-04T01:19:19.686Z,1007.07
2017-01-04T01:19:29.682Z,1007.12
2017-01-04T01:19:39.675Z,1007.08
2017-01-04T01:19:49.670Z,1007.02
2017-01-04T01:19:59.661Z,1007.1
2017-01-04T01:20:09.655Z,1007.05
2017-01-04T01:20:19.651Z,1007.09
2017-01-04T01:20:29.640Z,1007.06
2017-01-04T01:20:39.635Z,1007.07
2017-01-04T01:20:49.630Z,1007
2017-01-04T01:20:59.633Z,1007.07
2017-01-04T01:21:09.620Z,1007.01
2017-01-04T01:21:19.606Z,1007.07
2017-01-04T01:21:29.740Z,1007.02
2017-01-04T01:21:39.594Z,1007.11
2017-01-04T01:21:49.588Z,1006.96
2017-01-04T01:21:59.585Z,1007.01
2017-01-04T01:22:09.578Z,1007.03
2017-01-04T01:22:19.569Z,1007.04
2017-01-04T01:22:29.568Z,1007.06
2017-01-04T01:22:39.556Z,1007.04
2017-01-04T01:22:49.553Z,1007.03
2017-01-04T01:22:59.545Z,1007.08
2017-01-04T01:23:09.541Z,1007.05
2017-01-04T01:23:19.531Z,1007.07
2017-01-04T01:23:29.524Z,1007.1
2017-01-04T01:23:39.516Z,1007.1
2017-01-04T01:23:49.515Z,1007.06
2017-01-04T01:23:59.504Z,1007.03
2017-01-04T01:24:09.501Z,1007.03
2017-01-04T01:24:19.491Z,1007.03
2017-01-04T01:24:29.485Z,1007.04
2017-01-04T01:24:39.478Z,1007.04
2017-01-04T01:24:49.471Z,1007.04
2017-01-04T01:24:59.467Z,1007.06
2017-01-04T01:25:09.462Z,1007.06
2017-01-04T01:25:19.451Z,1007.04
2017-01-04T01:25:29.444Z,1007
2017-01-04T01:25:39.459Z,1007.01
2017-01-04T01:25:49.434Z,1007.06
2017-01-04T01:25:59.427Z,1007.03
2017-01-04T01:26:09.422Z,1007.01
2017-01-04T01:26:19.414Z,1006.97
2017-01-04T01:26:29.408Z,1007.08
2017-01-04T01:26:39.403Z,1006.97
2017-01-04T01:26:49.394Z,1007
2017-01-04T01:26:59.387Z,1007.01
2017-01-04T01:27:09.382Z,1007.03
2017-01-04T01:27:19.377Z,1006.98
2017-01-04T01:27:29.368Z,1007
2017-01-04T01:27:39.363Z,1007
2017-01-04T01:27:49.357Z,1006.94
2017-01-04T01:27:59.350Z,1007
2017-01-04T01:28:09.341Z,1007
2017-01-04T01:28:19.338Z,1006.99
2017-01-04T01:28:29.328Z,1006.93
2017-01-04T01:28:39.325Z,1006.97
2017-01-04T01:28:49.318Z,1006.95
2017-01-04T01:28:59.313Z,1006.93
2017-01-04T01:29:09.304Z,1006.91
2017-01-04T01:29:19.296Z,1006.92
2017-01-04T01:29:29.291Z,1006.89
2017-01-04T01:29:39.285Z,1006.9
2017-01-04T01:29:49.282Z,1006.99
2017-01-04T01:29:59.273Z,1006.91
2017-01-04T01:30:09.261Z,1006.82
2017-01-04T01:30:19.258Z,1006.91
2017-01-04T01:30:29.251Z,1006.82
2017-01-04T01:30:39.247Z,1006.88
2017-01-04T01:30:49.241Z,1006.88
2017-01-04T01:30:59.233Z,1006.85
2017-01-04T01:31:09.225Z,1006.79
2017-01-04T01:31:19.220Z,1006.78
2017-01-04T01:31:29.213Z,1006.86
2017-01-04T01:31:39.209Z,1006.82
2017-01-04T01:31:49.199Z,1006.8
2017-01-04T01:31:59.192Z,1006.81
2017-01-04T01:32:09.190Z,1006.79
2017-01-04T01:32:19.180Z,1006.84
2017-01-04T01:32:29.174Z,1006.84
2017-01-04T01:32:39.305Z,1006.81
2017-01-04T01:32:49.158Z,1006.8
2017-01-04T01:32:59.155Z,1006.84
2017-01-04T01:33:09.277Z,1006.85
2017-01-04T01:33:19.141Z,1006.81
2017-01-04T01:33:29.154Z,1006.76
2017-01-04T01:33:39.129Z,1006.73
2017-01-04T01:33:49.121Z,1006.71
2017-01-04T01:33:59.114Z,1006.75
2017-01-04T01:34:09.124Z,1006.76
2017-01-04T01:34:19.102Z,1006.74
2017-01-04T01:34:29.096Z,1006.76
2017-01-04T01:34:39.091Z,1006.72
2017-01-04T01:34:49.087Z,1006.71
2017-01-04T01:34:59.075Z,1006.71
2017-01-04T01:35:09.068Z,1006.65
2017-01-04T01:35:19.066Z,1006.7
2017-01-04T01:35:29.057Z,1006.71
2017-01-04T01:35:39.056Z,1006.7
2017-01-04T01:35:49.043Z,1006.63
2017-01-04T01:35:59.035Z,1006.59
2017-01-04T01:36:09.033Z,1006.6
2017-01-04T01:36:19.025Z,1006.61
2017-01-04T01:36:29.018Z,1006.57
2017-01-04T01:36:39.015Z,1006.62
2017-01-04T01:36:49.006Z,1006.6
2017-01-04T01:36:58.994Z,1006.63
2017-01-04T01:37:08.992Z,1006.61
2017-01-04T01:37:18.986Z,1006.64
2017-01-04T01:37:28.980Z,1006.54
2017-01-04T01:37:38.973Z,1006.63
2017-01-04T01:37:48.968Z,1006.66
2017-01-04T01:37:58.989Z,1006.63
2017-01-04T01:38:08.954Z,1006.65
2017-01-04T01:38:18.943Z,1006.61
2017-01-04T01:38:28.937Z,1006.53
2017-01-04T01:38:38.936Z,1006.58
2017-01-04T01:38:48.931Z,1006.59
2017-01-04T01:38:58.921Z,1006.58
2017-01-04T01:39:08.917Z,1006.51
2017-01-04T01:39:18.911Z,1006.56
2017-01-04T01:39:28.902Z,1006.62
2017-01-04T01:39:38.896Z,1006.57
2017-01-04T01:39:48.887Z,1006.55
2017-01-04T01:39:58.884Z,1006.56
2017-01-04T01:40:08.876Z,1006.45
2017-01-04T01:40:18.873Z,1006.46
2017-01-04T01:40:28.859Z,1006.51
2017-01-04T01:40:38.856Z,1006.58
2017-01-04T01:40:48.847Z,1006.45
2017-01-04T01:40:58.843Z,1006.46
2017-01-04T01:41:08.835Z,1006.52
2017-01-04T01:41:18.831Z,1006.49
2017-01-04T01:41:28.852Z,1006.43
2017-01-04T01:41:38.815Z,1006.49
2017-01-04T01:41:48.810Z,1006.55
2017-01-04T01:41:58.802Z,1006.53
2017-01-04T01:42:08.794Z,1006.49
2017-01-04T01:42:18.792Z,1006.48
2017-01-04T01:42:28.785Z,1006.5
2017-01-04T01:42:38.780Z,1006.53
2017-01-04T01:42:48.772Z,1006.53
2017-01-04T01:42:58.765Z,1006.48
2017-01-04T01:43:08.759Z,1006.46
2017-01-04T01:43:18.752Z,1006.48
2017-01-04T01:43:28.745Z,1006.43
2017-01-04T01:43:38.741Z,1006.46
2017-01-04T01:43:48.734Z,1006.47
2017-01-04T01:43:58.723Z,1006.45
2017-01-04T01:44:08.721Z,1006.44
2017-01-04T01:44:18.715Z,1006.54
2017-01-04T01:44:28.705Z,1006.49
2017-01-04T01:44:38.699Z,1006.52
2017-01-04T01:44:48.696Z,1006.46
2017-01-04T01:44:58.688Z,1006.48
2017-01-04T01:45:08.681Z,1006.43
2017-01-04T01:45:18.673Z,1006.44
2017-01-04T01:45:28.667Z,1006.49
2017-01-04T01:45:38.670Z,1006.55
2017-01-04T01:45:48.657Z,1006.47
2017-01-04T01:45:58.650Z,1006.46
2017-01-04T01:46:08.642Z,1006.46
2017-01-04T01:46:18.658Z,1006.51
2017-01-04T01:46:28.628Z,1006.59
2017-01-04T01:46:38.622Z,1006.55
2017-01-04T01:46:48.617Z,1006.52
2017-01-04T01:46:58.608Z,1006.49
2017-01-04T01:47:08.600Z,1006.51
2017-01-04T01:47:18.594Z,1006.46
2017-01-04T01:47:28.589Z,1006.5
2017-01-04T01:47:38.581Z,1006.46
2017-01-04T01:47:48.576Z,1006.48
2017-01-04T01:47:58.570Z,1006.47
2017-01-04T01:48:08.562Z,1006.48
2017-01-04T01:48:18.557Z,1006.51
2017-01-04T01:48:28.552Z,1006.45
2017-01-04T01:48:38.677Z,1006.44
2017-01-04T01:48:48.535Z,1006.47
2017-01-04T01:48:58.531Z,1006.42
2017-01-04T01:49:08.553Z,1006.4
2017-01-04T01:49:18.517Z,1006.47
2017-01-04T01:49:28.509Z,1006.44
2017-01-04T01:49:38.507Z,1006.49
2017-01-04T01:49:48.497Z,1006.42
2017-01-04T01:49:58.493Z,1006.45
2017-01-04T01:50:08.488Z,1006.45
2017-01-04T01:50:18.482Z,1006.5
2017-01-04T01:50:28.473Z,1006.51
2017-01-04T01:50:38.467Z,1006.5
2017-01-04T01:50:48.486Z,1006.44
2017-01-04T01:50:58.453Z,1006.54
2017-01-04T01:51:08.449Z,1006.48
2017-01-04T01:51:18.440Z,1006.49
2017-01-04T01:51:28.436Z,1006.46
2017-01-04T01:51:38.429Z,1006.45
2017-01-04T01:51:48.420Z,1006.43
2017-01-04T01:51:58.413Z,1006.39
2017-01-04T01:52:08.408Z,1006.46
2017-01-04T01:52:18.405Z,1006.45
2017-01-04T01:52:28.395Z,1006.45
2017-01-04T01:52:38.390Z,1006.45
2017-01-04T01:52:48.382Z,1006.4
2017-01-04T01:52:58.374Z,1006.39
2017-01-04T01:53:08.370Z,1006.41
2017-01-04T01:53:18.361Z,1006.42
2017-01-04T01:53:28.355Z,1006.4
2017-01-04T01:53:38.350Z,1006.38
2017-01-04T01:53:48.374Z,1006.43
2017-01-04T01:53:58.335Z,1006.41
2017-01-04T01:54:08.332Z,1006.37
2017-01-04T01:54:18.321Z,1006.41
2017-01-04T01:54:28.315Z,1006.35
2017-01-04T01:54:38.316Z,1006.4
2017-01-04T01:54:48.305Z,1006.43
2017-01-04T01:54:58.298Z,1006.36
2017-01-04T01:55:08.292Z,1006.4
2017-01-04T01:55:18.284Z,1006.43
2017-01-04T01:55:28.279Z,1006.32
2017-01-04T01:55:38.274Z,1006.38
2017-01-04T01:55:48.266Z,1006.37
2017-01-04T01:55:58.260Z,1006.32
2017-01-04T01:56:08.254Z,1006.32
2017-01-04T01:56:18.244Z,1006.3
2017-01-04T01:56:28.240Z,1006.31
2017-01-04T01:56:38.232Z,1006.31
2017-01-04T01:56:48.224Z,1006.31
2017-01-04T01:56:58.218Z,1006.32
2017-01-04T01:57:08.212Z,1006.4
2017-01-04T01:57:18.209Z,1006.29
2017-01-04T01:57:28.199Z,1006.31
2017-01-04T01:57:38.192Z,1006.31
2017-01-04T01:57:48.188Z,1006.3
2017-01-04T01:57:58.180Z,1006.36
2017-01-04T01:58:08.174Z,1006.34
2017-01-04T01:58:18.164Z,1006.31
2017-01-04T01:58:28.160Z,1006.33
2017-01-04T01:58:38.154Z,1006.23
2017-01-04T01:58:48.149Z,1006.22
2017-01-04T01:58:58.145Z,1006.24
2017-01-04T01:59:08.137Z,1006.26
2017-01-04T01:59:18.129Z,1006.27
2017-01-04T01:59:28.120Z,1006.27
2017-01-04T01:59:38.113Z,1006.27
2017-01-04T01:59:48.108Z,1006.31
2017-01-04T01:59:58.106Z,1006.32
2017-01-04T02:00:08.096Z,1006.35
2017-01-04T02:00:18.093Z,1006.4
2017-01-04T02:00:28.083Z,1006.29
2017-01-04T02:00:38.079Z,1006.33
2017-01-04T02:00:48.069Z,1006.21
2017-01-04T02:00:58.063Z,1006.26
2017-01-04T02:01:08.058Z,1006.3
2017-01-04T02:01:18.074Z,1006.32